Observation data for Reese Center on 05/15/2018      Previous  Date  Next       Current Mesonet Observations  Soil Data  Daily Summary Page  Observations in Plain Language
KREE 150500Z 14014KT 22/12 A2994 RMK A01 T02240120  RH  053%=      5-min Rain = 0
KREE 150505Z 14016G21KT 22/12 A2994 RMK A01 T02240123  RH  054%=      5-min Rain = 0
KREE 150510Z 14016KT 23/13 A2994 RMK A01 T02250126  RH  055%=      5-min Rain = 0
KREE 150515Z 14016KT 23/13 A2994 RMK A01 T02250127  RH  055%=      5-min Rain = 0
KREE 150520Z 14016KT 23/13 A2994 RMK A01 T02250127  RH  055%=      5-min Rain = 0
KREE 150525Z 14015KT 22/13 A2994 RMK A01 T02240127  RH  055%=      5-min Rain = 0
KREE 150530Z 15015KT 22/13 A2994 RMK A01 T02240126  RH  055%=      5-min Rain = 0
KREE 150535Z 15013KT 22/13 A2994 RMK A01 T02220126  RH  056%=      5-min Rain = 0
KREE 150540Z 15012KT 22/13 A2994 RMK A01 T02210126  RH  056%=      5-min Rain = 0
KREE 150545Z 16012KT 22/13 A2995 RMK A01 T02190127  RH  057%=      5-min Rain = 0
KREE 150550Z 16011KT 22/13 A2995 RMK A01 T02170127  RH  058%=      5-min Rain = 0
KREE 150555Z 16012KT 22/13 A2995 RMK A01 T02150128  RH  059%=      5-min Rain = 0
KREE 150600Z 17011KT 21/13 A2996 RMK A01 T02140130  RH  060%=      5-min Rain = 0
KREE 150605Z 17010KT 21/13 A2996 RMK A01 T02140132  RH  061%=      5-min Rain = 0
KREE 150610Z 17011G16KT 21/14 A2996 RMK A01 T02140135  RH  062%=      5-min Rain = 0
KREE 150615Z 16010KT 21/14 A2996 RMK A01 T02120138  RH  064%=      5-min Rain = 0
KREE 150620Z 15009KT 21/14 A2997 RMK A01 T02110141  RH  066%=      5-min Rain = 0
KREE 150625Z 15009KT 21/15 A2997 RMK A01 T02100145  RH  068%=      5-min Rain = 0
KREE 150630Z 15010KT 21/15 A2997 RMK A01 T02090150  RH  070%=      5-min Rain = 0
KREE 150635Z 15009KT 21/15 A2997 RMK A01 T02100153  RH  072%=      5-min Rain = 0
KREE 150640Z 16011KT 21/16 A2997 RMK A01 T02100158  RH  074%=      5-min Rain = 0
KREE 150645Z 16011G16KT 21/16 A2997 RMK A01 T02110160  RH  074%=      5-min Rain = 0
KREE 150650Z 16012KT 21/16 A2997 RMK A01 T02110162  RH  075%=      5-min Rain = 0
KREE 150655Z 16014KT 21/16 A2997 RMK A01 T02110164  RH  076%=      5-min Rain = 0
KREE 150700Z 16013KT 21/16 A2997 RMK A01 T02100163  RH  076%=      5-min Rain = 0
KREE 150705Z 17013KT 21/16 A2997 RMK A01 T02100164  RH  077%=      5-min Rain = 0
KREE 150710Z 17015KT 21/16 A2997 RMK A01 T02090164  RH  077%=      5-min Rain = 0
KREE 150715Z 18013G18KT 21/16 A2997 RMK A01 T02080163  RH  077%=      5-min Rain = 0
KREE 150720Z 18014KT 21/16 A2996 RMK A01 T02070164  RH  078%=      5-min Rain = 0
KREE 150725Z 18014KT 21/16 A2996 RMK A01 T02060164  RH  078%=      5-min Rain = 0
KREE 150730Z 17015G21KT 21/16 A2996 RMK A01 T02050163  RH  079%=      5-min Rain = 0
KREE 150735Z 18016G21KT 20/16 A2996 RMK A01 T02040164  RH  080%=      5-min Rain = 0
KREE 150740Z 18014KT 20/16 A2996 RMK A01 T02030164  RH  080%=      5-min Rain = 0
KREE 150745Z 18013KT 20/16 A2996 RMK A01 T02020163  RH  081%=      5-min Rain = 0
KREE 150750Z 19013G18KT 20/16 A2996 RMK A01 T02010163  RH  081%=      5-min Rain = 0
KREE 150755Z 19014KT 20/16 A2996 RMK A01 T02000163  RH  081%=      5-min Rain = 0
KREE 150800Z 18014KT 20/16 A2996 RMK A01 T01990162  RH  081%=      5-min Rain = 0
KREE 150805Z 18014KT 20/16 A2996 RMK A01 T01990162  RH  081%=      5-min Rain = 0
KREE 150810Z 18014KT 20/16 A2996 RMK A01 T01980161  RH  081%=      5-min Rain = 0
KREE 150815Z 19015G21KT 20/16 A2996 RMK A01 T01970160  RH  081%=      5-min Rain = 0
KREE 150820Z 18016G21KT 20/16 A2996 RMK A01 T01960160  RH  081%=      5-min Rain = 0
KREE 150825Z 19016G21KT 20/16 A2995 RMK A01 T01960160  RH  082%=      5-min Rain = 0
KREE 150830Z 19017G22KT 20/16 A2995 RMK A01 T01950160  RH  082%=      5-min Rain = 0
KREE 150835Z 19017G22KT 20/16 A2995 RMK A01 T01950160  RH  082%=      5-min Rain = 0
KREE 150840Z 18016KT 19/16 A2996 RMK A01 T01940160  RH  082%=      5-min Rain = 0
KREE 150845Z 18015G20KT 19/16 A2996 RMK A01 T01940160  RH  082%=      5-min Rain = 0
KREE 150850Z 18016KT 19/16 A2996 RMK A01 T01930160  RH  083%=      5-min Rain = 0
KREE 150855Z 18015KT 19/16 A2996 RMK A01 T01930161  RH  083%=      5-min Rain = 0
KREE 150900Z 19016KT 19/16 A2996 RMK A01 T01930161  RH  084%=      5-min Rain = 0
KREE 150905Z 19016G21KT 19/16 A2995 RMK A01 T01920162  RH  084%=      5-min Rain = 0
KREE 150910Z 19017KT 19/16 A2995 RMK A01 T01920162  RH  085%=      5-min Rain = 0
KREE 150915Z 19019G24KT 19/16 A2995 RMK A01 T01930163  RH  085%=      5-min Rain = 0
KREE 150920Z 19018KT 19/16 A2994 RMK A01 T01920164  RH  086%=      5-min Rain = 0
KREE 150925Z 19017KT 19/16 A2994 RMK A01 T01910164  RH  086%=      5-min Rain = 0
KREE 150930Z 19016G21KT 19/16 A2994 RMK A01 T01910164  RH  086%=      5-min Rain = 0
KREE 150935Z 20015G20KT 19/16 A2994 RMK A01 T01900164  RH  087%=      5-min Rain = 0
KREE 150940Z 19016KT 19/16 A2994 RMK A01 T01890164  RH  087%=      5-min Rain = 0
KREE 150945Z 20016G21KT 19/17 A2994 RMK A01 T01890165  RH  088%=      5-min Rain = 0
KREE 150950Z 20017KT 19/17 A2994 RMK A01 T01890165  RH  088%=      5-min Rain = 0
KREE 150955Z 20015KT 19/17 A2994 RMK A01 T01880165  RH  088%=      5-min Rain = 0
KREE 151000Z 20014G19KT 19/17 A2995 RMK A01 T01870165  RH  089%=      5-min Rain = 0
KREE 151005Z 20013KT 19/16 A2995 RMK A01 T01860164  RH  089%=      5-min Rain = 0
KREE 151010Z 20014KT 19/16 A2995 RMK A01 T01860164  RH  089%=      5-min Rain = 0
KREE 151015Z 20013KT 19/16 A2995 RMK A01 T01860164  RH  089%=      5-min Rain = 0
KREE 151020Z 20013G18KT 19/16 A2995 RMK A01 T01850163  RH  089%=      5-min Rain = 0
KREE 151025Z 20013KT 19/16 A2995 RMK A01 T01850163  RH  089%=      5-min Rain = 0
KREE 151030Z 20013G18KT 19/16 A2995 RMK A01 T01850163  RH  089%=      5-min Rain = 0
KREE 151035Z 19012KT 19/16 A2995 RMK A01 T01850163  RH  089%=      5-min Rain = 0
KREE 151040Z 19012KT 19/16 A2995 RMK A01 T01850163  RH  089%=      5-min Rain = 0
KREE 151045Z 20012KT 18/16 A2995 RMK A01 T01840163  RH  090%=      5-min Rain = 0
KREE 151050Z 20012G17KT 18/16 A2995 RMK A01 T01830164  RH  090%=      5-min Rain = 0
KREE 151055Z 19013KT 18/16 A2995 RMK A01 T01840164  RH  091%=      5-min Rain = 0
KREE 151100Z 19013KT 18/17 A2995 RMK A01 T01830165  RH  091%=      5-min Rain = 0
KREE 151105Z 20012KT 18/17 A2996 RMK A01 T01830165  RH  091%=      5-min Rain = 0
KREE 151110Z 20011KT 18/17 A2996 RMK A01 T01820165  RH  092%=      5-min Rain = 0
KREE 151115Z 20011KT 18/16 A2996 RMK A01 T01810164  RH  092%=      5-min Rain = 0
KREE 151120Z 20010KT 18/16 A2995 RMK A01 T01800164  RH  092%=      5-min Rain = 0
KREE 151125Z 20010KT 18/17 A2995 RMK A01 T01800165  RH  093%=      5-min Rain = 0
KREE 151130Z 20010KT 18/17 A2996 RMK A01 T01810166  RH  093%=      5-min Rain = 0
KREE 151135Z 20011KT 18/17 A2996 RMK A01 T01830168  RH  093%=      5-min Rain = 0
KREE 151140Z 20011KT 19/17 A2996 RMK A01 T01850169  RH  092%=      5-min Rain = 0
KREE 151145Z 21013G18KT 19/17 A2996 RMK A01 T01870170  RH  092%=      5-min Rain = 0
KREE 151150Z 21015G23KT 19/17 A2995 RMK A01 T01890172  RH  092%=      5-min Rain = 0
KREE 151155Z 21017KT 19/17 A2995 RMK A01 T01900172  RH  091%=      5-min Rain = 0
KREE 151200Z 21017G22KT 19/17 A2996 RMK A01 T01910171  RH  091%=      5-min Rain = 0
KREE 151205Z 21018G24KT 19/17 A2996 RMK A01 T01910171  RH  090%=      5-min Rain = 0
KREE 151210Z 21018G25KT 19/17 A2996 RMK A01 T01920171  RH  090%=      5-min Rain = 0
KREE 151215Z 21018G24KT 19/17 A2996 RMK A01 T01920170  RH  089%=      5-min Rain = 0
KREE 151220Z 22020G26KT 19/17 A2996 RMK A01 T01920170  RH  089%=      5-min Rain = 0
KREE 151225Z 21020G25KT 19/17 A2997 RMK A01 T01940171  RH  089%=      5-min Rain = 0
KREE 151230Z 21020G25KT 19/17 A2997 RMK A01 T01940170  RH  088%=      5-min Rain = 0
KREE 151235Z 21018G24KT 20/17 A2997 RMK A01 T01950170  RH  088%=      5-min Rain = 0
KREE 151240Z 22017G24KT 20/17 A2997 RMK A01 T01970170  RH  087%=      5-min Rain = 0
KREE 151245Z 22017G22KT 20/17 A2997 RMK A01 T01970170  RH  087%=      5-min Rain = 0
KREE 151250Z 22017KT 20/17 A2997 RMK A01 T01980171  RH  086%=      5-min Rain = 0
KREE 151255Z 22016G21KT 20/17 A2997 RMK A01 T01990172  RH  086%=      5-min Rain = 0
KREE 151300Z 22018KT 20/17 A2997 RMK A01 T02010172  RH  086%=      5-min Rain = 0
KREE 151305Z 22018KT 20/17 A2997 RMK A01 T02020172  RH  085%=      5-min Rain = 0
KREE 151310Z 22018G23KT 20/17 A2997 RMK A01 T02020172  RH  085%=      5-min Rain = 0
KREE 151315Z 22017KT 20/17 A2997 RMK A01 T02030171  RH  084%=      5-min Rain = 0
KREE 151320Z 23017KT 20/17 A2998 RMK A01 T02040171  RH  083%=      5-min Rain = 0
KREE 151325Z 23017KT 20/17 A2998 RMK A01 T02040170  RH  083%=      5-min Rain = 0
KREE 151330Z 23015KT 21/17 A2998 RMK A01 T02060170  RH  082%=      5-min Rain = 0
KREE 151335Z 22016KT 21/17 A2998 RMK A01 T02070168  RH  080%=      5-min Rain = 0
KREE 151340Z 23015G20KT 21/17 A2998 RMK A01 T02080168  RH  080%=      5-min Rain = 0
KREE 151345Z 23015KT 21/17 A2998 RMK A01 T02090168  RH  079%=      5-min Rain = 0
KREE 151350Z 22015KT 21/17 A2998 RMK A01 T02110168  RH  078%=      5-min Rain = 0
KREE 151355Z 22015KT 21/17 A2998 RMK A01 T02130167  RH  077%=      5-min Rain = 0
KREE 151400Z 23014KT 22/17 A2998 RMK A01 T02150166  RH  075%=      5-min Rain = 0
KREE 151405Z 23016KT 22/16 A2998 RMK A01 T02150164  RH  074%=      5-min Rain = 0
KREE 151410Z 23015KT 22/16 A2998 RMK A01 T02160163  RH  073%=      5-min Rain = 0
KREE 151415Z 23014KT 22/16 A2998 RMK A01 T02190163  RH  072%=      5-min Rain = 0
KREE 151420Z 23015KT 22/16 A2998 RMK A01 T02230161  RH  069%=      5-min Rain = 0
KREE 151425Z 23015KT 22/16 A2998 RMK A01 T02230160  RH  069%=      5-min Rain = 0
KREE 151430Z 25014KT 23/16 A2999 RMK A01 T02270159  RH  067%=      5-min Rain = 0
KREE 151435Z 28014G19KT 23/16 A3001 RMK A01 T02310159  RH  065%=      5-min Rain = 0
KREE 151440Z 26010KT 23/16 A2999 RMK A01 T02330156  RH  064%=      5-min Rain = 0
KREE 151445Z 27011G17KT 24/16 A30 RMK A01 T02350156  RH  063%=      5-min Rain = 0
KREE 151450Z 28011G22KT 24/15 A30 RMK A01 T02350153  RH  061%=      5-min Rain = 0
KREE 151455Z 27010KT 24/15 A30 RMK A01 T02370150  RH  059%=      5-min Rain = 0
KREE 151500Z 31012G17KT 24/15 A3001 RMK A01 T02410152  RH  059%=      5-min Rain = 0
KREE 151505Z 30009KT 24/15 A30 RMK A01 T02440151  RH  058%=      5-min Rain = 0
KREE 151510Z 29011G17KT 25/15 A30 RMK A01 T02470149  RH  055%=      5-min Rain = 0
KREE 151515Z 30012KT 25/15 A3001 RMK A01 T02470149  RH  056%=      5-min Rain = 0
KREE 151520Z 29010KT 25/15 A30 RMK A01 T02500148  RH  054%=      5-min Rain = 0
KREE 151525Z 30012KT 25/15 A3001 RMK A01 T02520145  RH  053%=      5-min Rain = 0
KREE 151530Z 30014G20KT 26/14 A3001 RMK A01 T02570138  RH  049%=      5-min Rain = 0
KREE 151535Z 31012KT 26/14 A3001 RMK A01 T02570141  RH  050%=      5-min Rain = 0
KREE 151540Z 32013G18KT 26/14 A3002 RMK A01 T02590135  RH  047%=      5-min Rain = 0
KREE 151545Z 32013KT 26/13 A3003 RMK A01 T02590134  RH  047%=      5-min Rain = 0
KREE 151550Z 34014KT 26/13 A3003 RMK A01 T02590133  RH  046%=      5-min Rain = 0
KREE 151555Z 34009KT 26/13 A3004 RMK A01 T02590132  RH  046%=      5-min Rain = 0
KREE 151600Z 35010G15KT 26/13 A3004 RMK A01 T02610128  RH  045%=      5-min Rain = 0
KREE 151605Z 35008G13KT 26/13 A3004 RMK A01 T02630126  RH  044%=      5-min Rain = 0
KREE 151610Z 36011G17KT 26/13 A3004 RMK A01 T02630127  RH  044%=      5-min Rain = 0
KREE 151615Z 35007G14KT 26/13 A3003 RMK A01 T02620128  RH  044%=      5-min Rain = 0
KREE 151620Z 34009G14KT 26/12 A3003 RMK A01 T02630119  RH  042%=      5-min Rain = 0
KREE 151625Z 32009G15KT 26/12 A3003 RMK A01 T02630120  RH  042%=      5-min Rain = 0
KREE 151630Z 32008G14KT 27/11 A3003 RMK A01 T02660113  RH  039%=      5-min Rain = 0
KREE 151635Z 31006KT 27/10 A3003 RMK A01 T02660102  RH  036%=      5-min Rain = 0
KREE 151640Z 29005KT 27/10 A3003 RMK A01 T02660097  RH  035%=      5-min Rain = 0
KREE 151645Z 00003KT 27/10 A3003 RMK A01 T02700100  RH  035%=      5-min Rain = 0
KREE 151650Z 01005KT 28/10 A3003 RMK A01 T02750103  RH  035%=      5-min Rain = 0
KREE 151655Z 32005KT 28/09 A3003 RMK A01 T02770093  RH  032%=      5-min Rain = 0
KREE 151700Z 30004KT 27/08 A3003 RMK A01 T02720081  RH  030%=      5-min Rain = 0
KREE 151705Z 09001KT 28/08 A3002 RMK A01 T02770083  RH  030%=      5-min Rain = 0
KREE 151710Z 33003KT 28/08 A3003 RMK A01 T02820077  RH  028%=      5-min Rain = 0
KREE 151715Z 33002KT 28/07 A3003 RMK A01 T02800068  RH  027%=      5-min Rain = 0
KREE 151720Z 17002KT 29/07 A3003 RMK A01 T02860072  RH  026%=      5-min Rain = 0
KREE 151725Z 14003KT 29/07 A3003 RMK A01 T02910073  RH  026%=      5-min Rain = 0
KREE 151730Z 02001KT 29/07 A3003 RMK A01 T02900068  RH  025%=      5-min Rain = 0
KREE 151735Z 35004G9KT 29/07 A3002 RMK A01 T02910066  RH  025%=      5-min Rain = 0
KREE 151740Z 00007KT 29/08 A3002 RMK A01 T02890075  RH  027%=      5-min Rain = 0
KREE 151745Z 35005KT 29/07 A3002 RMK A01 T02850071  RH  026%=      5-min Rain = 0
KREE 151750Z 08005KT 29/08 A3002 RMK A01 T02860077  RH  027%=      5-min Rain = 0
KREE 151755Z 13003KT 29/08 A3002 RMK A01 T02920076  RH  026%=      5-min Rain = 0
KREE 151800Z 15002KT 30/07 A3002 RMK A01 T02980074  RH  025%=      5-min Rain = 0
KREE 151805Z 34004KT 30/07 A3002 RMK A01 T02980069  RH  024%=      5-min Rain = 0
KREE 151810Z 34004KT 29/07 A3001 RMK A01 T02930065  RH  024%=      5-min Rain = 0
KREE 151815Z 05003KT 29/06 A3001 RMK A01 T02920062  RH  024%=      5-min Rain = 0
KREE 151820Z 01002KT 30/06 A3001 RMK A01 T02970061  RH  023%=      5-min Rain = 0
KREE 151825Z 34002KT 30/06 A3001 RMK A01 T03010059  RH  022%=      5-min Rain = 0
KREE 151830Z 09003KT 30/08 A3001 RMK A01 T03030075  RH  024%=      5-min Rain = 0
KREE 151835Z 11005G10KT 30/08 A3001 RMK A01 T03030077  RH  025%=      5-min Rain = 0
KREE 151840Z 06002KT 30/07 A3001 RMK A01 T03000072  RH  024%=      5-min Rain = 0
KREE 151845Z 31002KT 30/07 A3001 RMK A01 T03030065  RH  023%=      5-min Rain = 0
KREE 151850Z 26003KT 30/07 A30 RMK A01 T03020065  RH  023%=      5-min Rain = 0
KREE 151855Z 19003KT 31/07 A30 RMK A01 T03080069  RH  023%=      5-min Rain = 0
KREE 151900Z 18004KT 31/07 A30 RMK A01 T03110072  RH  023%=      5-min Rain = 0
KREE 151905Z 09005G10KT 31/08 A30 RMK A01 T03080080  RH  025%=      5-min Rain = 0
KREE 151910Z 11006KT 31/08 A30 RMK A01 T03060080  RH  025%=      5-min Rain = 0
KREE 151915Z 04003KT 30/08 A30 RMK A01 T03040076  RH  024%=      5-min Rain = 0
KREE 151920Z 34002KT 31/08 A30 RMK A01 T03090076  RH  024%=      5-min Rain = 0
KREE 151925Z 06007KT 31/08 A30 RMK A01 T03120081  RH  024%=      5-min Rain = 0
KREE 151930Z 07006KT 31/08 A30 RMK A01 T03100082  RH  025%=      5-min Rain = 0
KREE 151935Z 15002KT 31/08 A2999 RMK A01 T03110079  RH  024%=      5-min Rain = 0
KREE 151940Z 11005G11KT 32/09 A2999 RMK A01 T03150085  RH  024%=      5-min Rain = 0
KREE 151945Z 11009KT 31/09 A2999 RMK A01 T03110087  RH  025%=      5-min Rain = 0
KREE 151950Z 08004KT 31/08 A2999 RMK A01 T03090083  RH  025%=      5-min Rain = 0
KREE 151955Z 04002KT 31/07 A2999 RMK A01 T03100073  RH  023%=      5-min Rain = 0
KREE 152000Z 01003KT 32/07 A2999 RMK A01 T03150074  RH  023%=      5-min Rain = 0
KREE 152005Z 08007G16KT 31/09 A2998 RMK A01 T03130094  RH  026%=      5-min Rain = 0
KREE 152010Z 08008KT 31/10 A2998 RMK A01 T03130102  RH  028%=      5-min Rain = 0
KREE 152015Z 07006G11KT 31/09 A2998 RMK A01 T03120094  RH  026%=      5-min Rain = 0
KREE 152020Z 08004G10KT 31/10 A2998 RMK A01 T03120096  RH  027%=      5-min Rain = 0
KREE 152025Z 10009G15KT 32/10 A2998 RMK A01 T03170099  RH  027%=      5-min Rain = 0
KREE 152030Z 10006G11KT 31/10 A2998 RMK A01 T03120095  RH  027%=      5-min Rain = 0
KREE 152035Z 08008G15KT 31/09 A2997 RMK A01 T03080094  RH  027%=      5-min Rain = 0
KREE 152040Z 09007KT 31/10 A2997 RMK A01 T03120102  RH  028%=      5-min Rain = 0
KREE 152045Z 08008G14KT 32/11 A2997 RMK A01 T03160105  RH  028%=      5-min Rain = 0
KREE 152050Z 07011KT 31/10 A2996 RMK A01 T03120096  RH  027%=      5-min Rain = 0
KREE 152055Z 08009G16KT 31/10 A2996 RMK A01 T03080098  RH  028%=      5-min Rain = 0
KREE 152100Z 08013G19KT 31/10 A2995 RMK A01 T03060099  RH  028%=      5-min Rain = 0
KREE 152105Z 08010G19KT 30/10 A2995 RMK A01 T03030101  RH  029%=      5-min Rain = 0
KREE 152110Z 07011G17KT 31/10 A2995 RMK A01 T03060101  RH  029%=      5-min Rain = 0
KREE 152115Z 09009G18KT 30/10 A2995 RMK A01 T03040099  RH  029%=      5-min Rain = 0
KREE 152120Z 07011KT 30/10 A2994 RMK A01 T03020096  RH  028%=      5-min Rain = 0
KREE 152125Z 07010G15KT 31/10 A2994 RMK A01 T03080100  RH  028%=      5-min Rain = 0
KREE 152130Z 06010KT 31/10 A2994 RMK A01 T03060097  RH  028%=      5-min Rain = 0
KREE 152135Z 06008G13KT 31/11 A2993 RMK A01 T03050109  RH  030%=      5-min Rain = 0
KREE 152140Z 10010G17KT 31/10 A2993 RMK A01 T03090104  RH  029%=      5-min Rain = 0
KREE 152145Z 09008G13KT 31/10 A2993 RMK A01 T03080102  RH  029%=      5-min Rain = 0
KREE 152150Z 05009KT 31/10 A2992 RMK A01 T03130100  RH  027%=      5-min Rain = 0
KREE 152155Z 08009G16KT 31/10 A2992 RMK A01 T03140100  RH  027%=      5-min Rain = 0
KREE 152200Z 10010G15KT 31/11 A2992 RMK A01 T03140106  RH  028%=      5-min Rain = 0
KREE 152205Z 08013G18KT 31/11 A2992 RMK A01 T03140107  RH  028%=      5-min Rain = 0
KREE 152210Z 05010G17KT 31/11 A2992 RMK A01 T03120106  RH  029%=      5-min Rain = 0
KREE 152215Z 07010G16KT 31/11 A2992 RMK A01 T03100106  RH  029%=      5-min Rain = 0
KREE 152220Z 07015G20KT 31/11 A2992 RMK A01 T03140113  RH  030%=      5-min Rain = 0
KREE 152225Z 07012KT 31/11 A2992 RMK A01 T03120111  RH  030%=      5-min Rain = 0
KREE 152230Z 07010KT 31/11 A2991 RMK A01 T03120106  RH  029%=      5-min Rain = 0
KREE 152235Z 06009G15KT 31/11 A2991 RMK A01 T03110106  RH  029%=      5-min Rain = 0
KREE 152240Z 04008G15KT 31/11 A2991 RMK A01 T03110105  RH  029%=      5-min Rain = 0
KREE 152245Z 10005G14KT 32/11 A2991 RMK A01 T03150108  RH  029%=      5-min Rain = 0
KREE 152250Z 12015G23KT 31/11 A2992 RMK A01 T03140113  RH  030%=      5-min Rain = 0
KREE 152255Z 14024G30KT 29/09 A2992 RMK A01 T02900087  RH  029%=      5-min Rain = 0
KREE 152300Z 13025G31KT 27/09 A2992 RMK A01 T02720087  RH  032%=      5-min Rain = 0
KREE 152305Z 12019G24KT 27/09 A2992 RMK A01 T02730090  RH  032%=      5-min Rain = 0
KREE 152310Z 13013KT 27/10 A2991 RMK A01 T02730099  RH  034%=      5-min Rain = 0
KREE 152315Z 12011KT 26/11 A299 RMK A01 T02640110  RH  039%=      5-min Rain = 0
KREE 152320Z 11011G18KT 26/12 A299 RMK A01 T02620115  RH  041%=      5-min Rain = 0
KREE 152325Z 10016G22KT 26/13 A2991 RMK A01 T02620126  RH  044%=      5-min Rain = 0
KREE 152330Z 10019KT 25/14 A2991 RMK A01 T02540136  RH  049%=      5-min Rain = 0
KREE 152335Z 09018G24KT 24/14 A2992 RMK A01 T02430140  RH  054%=      5-min Rain = 0
KREE 152340Z 08019G25KT 24/14 A2993 RMK A01 T02400137  RH  054%=      5-min Rain = 0
KREE 152345Z 08018KT 23/14 A2994 RMK A01 T02250135  RH  058%=      5-min Rain = 0
KREE 152350Z 07017G22KT 22/13 A2994 RMK A01 T02240132  RH  057%=      5-min Rain = 0
KREE 152355Z 06020KT 22/13 A2995 RMK A01 T02240131  RH  057%=      5-min Rain = 0
KREE 160000Z 07018G24KT 22/13 A2995 RMK A01 T02200130  RH  058%=      5-min Rain = 0
KREE 160005Z 06021G26KT 22/12 A2995 RMK A01 T02210122  RH  054%=      5-min Rain = 0
KREE 160010Z 06020G25KT 22/12 A2994 RMK A01 T02190117  RH  053%=      5-min Rain = 0
KREE 160015Z 07018G23KT 22/11 A2994 RMK A01 T02230113  RH  050%=      5-min Rain = 0
KREE 160020Z 08017KT 23/11 A2993 RMK A01 T02290110  RH  048%=      5-min Rain = 0
KREE 160025Z 08016G22KT 23/11 A2993 RMK A01 T02340109  RH  046%=      5-min Rain = 0
KREE 160030Z 08018G23KT 24/11 A2993 RMK A01 T02350105  RH  045%=      5-min Rain = 0
KREE 160035Z 08015KT 23/11 A2992 RMK A01 T02330108  RH  046%=      5-min Rain = 0
KREE 160040Z 08013KT 23/11 A2992 RMK A01 T02320112  RH  047%=      5-min Rain = 0
KREE 160045Z 08014KT 23/11 A2991 RMK A01 T02320112  RH  047%=      5-min Rain = 0
KREE 160050Z 09011KT 23/12 A2991 RMK A01 T02320115  RH  049%=      5-min Rain = 0
KREE 160055Z 09012KT 23/11 A2991 RMK A01 T02330112  RH  047%=      5-min Rain = 0
KREE 160100Z 09012KT 23/12 A299 RMK A01 T02330116  RH  049%=      5-min Rain = 0
KREE 160105Z 09012KT 23/12 A299 RMK A01 T02340120  RH  050%=      5-min Rain = 0
KREE 160110Z 09013KT 23/12 A299 RMK A01 T02340122  RH  050%=      5-min Rain = 0
KREE 160115Z 09012KT 23/12 A2991 RMK A01 T02340123  RH  051%=      5-min Rain = 0
KREE 160120Z 09011KT 23/13 A2991 RMK A01 T02330125  RH  052%=      5-min Rain = 0
KREE 160125Z 09010KT 23/13 A2992 RMK A01 T02320126  RH  052%=      5-min Rain = 0
KREE 160130Z 09010KT 23/13 A2992 RMK A01 T02310126  RH  053%=      5-min Rain = 0
KREE 160135Z 09010KT 23/13 A2993 RMK A01 T02300127  RH  053%=      5-min Rain = 0
KREE 160140Z 10009KT 23/13 A2993 RMK A01 T02290128  RH  054%=      5-min Rain = 0
KREE 160145Z 10008KT 23/13 A2994 RMK A01 T02290129  RH  054%=      5-min Rain = 0
KREE 160150Z 09008KT 23/13 A2995 RMK A01 T02270130  RH  055%=      5-min Rain = 0
KREE 160155Z 09010KT 23/13 A2995 RMK A01 T02260134  RH  057%=      5-min Rain = 0
KREE 160200Z 07009KT 23/14 A2996 RMK A01 T02280136  RH  057%=      5-min Rain = 0
KREE 160205Z 06010KT 23/15 A2996 RMK A01 T02270145  RH  061%=      5-min Rain = 0
KREE 160210Z 07012KT 22/15 A2997 RMK A01 T02230153  RH  066%=      5-min Rain = 0
KREE 160215Z 08010KT 22/15 A2997 RMK A01 T02190153  RH  067%=      5-min Rain = 0
KREE 160220Z 08009KT 22/15 A2997 RMK A01 T02170153  RH  068%=      5-min Rain = 0
KREE 160225Z 07008KT 22/15 A2998 RMK A01 T02160153  RH  069%=      5-min Rain = 0
KREE 160230Z 04007KT 22/15 A2999 RMK A01 T02160152  RH  068%=      5-min Rain = 0
KREE 160235Z 01011KT 21/15 A30 RMK A01 T02140149  RH  068%=      5-min Rain = 0
KREE 160240Z 02013G20KT 21/15 A30 RMK A01 T02090145  RH  068%=      5-min Rain = 0
KREE 160245Z 05011KT 20/15 A30 RMK A01 T02030145  RH  071%=      5-min Rain = 0
KREE 160250Z 07011KT 20/14 A30 RMK A01 T02000143  RH  071%=      5-min Rain = 0
KREE 160255Z 06010KT 20/14 A3001 RMK A01 T02010141  RH  070%=      5-min Rain = 0
KREE 160300Z 04009KT 20/14 A3002 RMK A01 T02010140  RH  069%=      5-min Rain = 0
KREE 160305Z 06008KT 20/14 A3001 RMK A01 T02010139  RH  069%=      5-min Rain = 0
KREE 160310Z 09007KT 20/14 A3001 RMK A01 T02000139  RH  069%=      5-min Rain = 0
KREE 160315Z 09007KT 20/14 A3001 RMK A01 T01980138  RH  070%=      5-min Rain = 0
KREE 160320Z 08008KT 20/14 A3001 RMK A01 T01980136  RH  068%=      5-min Rain = 0
KREE 160325Z 07008KT 20/13 A3001 RMK A01 T02000133  RH  067%=      5-min Rain = 0
KREE 160330Z 09007KT 20/13 A3001 RMK A01 T01980130  RH  066%=      5-min Rain = 0
KREE 160335Z 09009KT 20/13 A3001 RMK A01 T01970129  RH  066%=      5-min Rain = 0
KREE 160340Z 10006KT 20/13 A3001 RMK A01 T01970128  RH  066%=      5-min Rain = 0
KREE 160345Z 10005KT 20/13 A3002 RMK A01 T01950129  RH  067%=      5-min Rain = 0
KREE 160350Z 09006KT 19/13 A3002 RMK A01 T01920130  RH  068%=      5-min Rain = 0
KREE 160355Z 09007KT 19/13 A3002 RMK A01 T01910129  RH  069%=      5-min Rain = 0
KREE 160400Z 10007KT 19/13 A3002 RMK A01 T01920130  RH  069%=      5-min Rain = 0
KREE 160405Z 08006KT 19/13 A3002 RMK A01 T01910128  RH  068%=      5-min Rain = 0
KREE 160410Z 08005KT 19/13 A3002 RMK A01 T01900125  RH  067%=      5-min Rain = 0
KREE 160415Z 08005KT 19/12 A3003 RMK A01 T01880124  RH  068%=      5-min Rain = 0
KREE 160420Z 09009KT 19/12 A3003 RMK A01 T01870123  RH  068%=      5-min Rain = 0
KREE 160425Z 08010KT 19/12 A3003 RMK A01 T01860124  RH  068%=      5-min Rain = 0
KREE 160430Z 08009KT 19/12 A3002 RMK A01 T01880124  RH  068%=      5-min Rain = 0
KREE 160435Z 10013G19KT 19/12 A3002 RMK A01 T01920123  RH  066%=      5-min Rain = 0
KREE 160440Z 11015KT 19/12 A3002 RMK A01 T01940124  RH  065%=      5-min Rain = 0
KREE 160445Z 10014G19KT 19/13 A3002 RMK A01 T01920125  RH  066%=      5-min Rain = 0
KREE 160450Z 10015KT 19/13 A3002 RMK A01 T01910125  RH  067%=      5-min Rain = 0
KREE 160455Z 08009G14KT 19/13 A3002 RMK A01 T01890125  RH  068%=      5-min Rain = 0

Page generated in 0.0092 seconds.